createdAt,value
2023-02-14T00:05:47.316Z,45.33
2023-02-14T00:15:49.481Z,38.63
2023-02-14T00:25:51.418Z,28.70
2023-02-14T00:35:53.296Z,27.80
2023-02-14T00:45:56.101Z,32.83
2023-02-14T00:55:58.060Z,29.55
2023-02-14T01:05:59.888Z,23.20
2023-02-14T01:16:10.322Z,29.73
2023-02-14T01:26:12.944Z,29.48
2023-02-14T01:36:26.410Z,27.42
2023-02-14T01:46:33.383Z,30.60
2023-02-14T01:56:40.069Z,30.55
2023-02-14T02:06:46.801Z,33.55
2023-02-14T02:17:15.020Z,42.35
2023-02-14T02:27:40.463Z,29.67
2023-02-14T02:37:59.002Z,30.67
2023-02-14T02:48:15.243Z,35.97
2023-02-14T02:58:20.530Z,30.75
2023-02-14T03:08:22.479Z,47.38
2023-02-14T03:19:02.874Z,43.22
2023-02-14T03:29:29.199Z,33.77
2023-02-14T03:39:49.678Z,27.40
2023-02-14T03:49:55.804Z,32.80
2023-02-14T03:59:58.402Z,36.88
2023-02-14T04:10:00.605Z,46.50
2023-02-14T04:20:02.460Z,46.65
2023-02-14T04:30:05.163Z,45.22
2023-02-14T04:40:08.021Z,31.58
2023-02-14T04:50:10.225Z,39.03
2023-02-14T05:00:12.777Z,32.42
2023-02-14T05:10:14.838Z,38.85
2023-02-14T05:20:16.912Z,50.33
2023-02-14T05:30:18.864Z,43.92
2023-02-14T05:40:20.942Z,43.22
2023-02-14T05:50:23.009Z,46.17
2023-02-14T06:00:29.239Z,46.58
2023-02-14T06:10:32.543Z,59.30
2023-02-14T06:20:34.564Z,64.68
2023-02-14T06:30:37.872Z,44.90
2023-02-14T06:40:39.773Z,48.85
2023-02-14T06:50:41.617Z,54.38
2023-02-14T07:00:44.529Z,39.20
2023-02-14T07:10:47.172Z,27.23
2023-02-14T07:20:50.426Z,37.90
2023-02-14T07:30:52.578Z,34.05
2023-02-14T07:40:54.544Z,30.02
2023-02-14T07:50:56.666Z,34.70
2023-02-14T08:00:58.882Z,40.50
2023-02-14T08:11:01.518Z,45.47
2023-02-14T08:21:05.683Z,34.38
2023-02-14T08:31:07.618Z,56.72
2023-02-14T08:41:09.770Z,55.17
2023-02-14T08:51:13.838Z,55.67
2023-02-14T09:01:17.474Z,39.60
2023-02-14T09:11:22.554Z,60.17
2023-02-14T09:21:27.331Z,50.63
2023-02-14T09:31:29.362Z,34.05
2023-02-14T09:41:31.368Z,33.72
2023-02-14T09:51:33.260Z,29.88
2023-02-14T10:01:42.393Z,34.47
2023-02-14T10:11:47.702Z,39.67
2023-02-14T10:22:10.883Z,27.45
2023-02-14T10:32:21.659Z,15.63
2023-02-14T10:42:47.005Z,22.85
2023-02-14T10:53:11.312Z,24.83
2023-02-14T11:03:14.357Z,31.60
2023-02-14T11:13:37.599Z,25.38
2023-02-14T11:23:40.818Z,22.42
2023-02-14T11:33:44.286Z,25.83
2023-02-14T11:43:46.208Z,18.67
2023-02-14T11:53:51.268Z,17.73
2023-02-14T12:03:56.740Z,21.05
2023-02-14T12:14:01.459Z,22.90
2023-02-14T12:24:24.986Z,23.50
2023-02-14T12:34:27.354Z,19.95
2023-02-14T12:45:04.203Z,24.25
2023-02-14T12:56:01.182Z,17.60
2023-02-14T13:06:14.855Z,20.20
2023-02-14T13:16:38.717Z,18.15
2023-02-14T13:26:43.851Z,14.60
2023-02-14T13:36:46.889Z,23.48
2023-02-14T13:46:51.459Z,13.68
2023-02-14T13:56:53.430Z,25.20
2023-02-14T14:07:04.671Z,45.97
2023-02-14T14:17:21.016Z,18.00
2023-02-14T14:27:41.481Z,22.05
2023-02-14T14:37:52.141Z,23.80
2023-02-14T14:47:56.699Z,19.80
2023-02-14T14:58:01.549Z,22.17
2023-02-14T15:08:41.914Z,28.67
2023-02-14T15:18:43.762Z,32.83
2023-02-14T15:28:59.733Z,33.60
2023-02-14T15:39:04.849Z,40.08
2023-02-14T15:49:10.767Z,31.45
2023-02-14T15:59:16.201Z,38.58
2023-02-14T16:09:30.625Z,41.53
2023-02-14T16:19:44.148Z,46.15
2023-02-14T16:29:46.025Z,37.70
2023-02-14T16:39:48.277Z,42.45
2023-02-14T16:49:50.208Z,58.55
2023-02-14T16:59:52.162Z,46.92
2023-02-14T17:09:59.744Z,59.30
2023-02-14T17:20:02.044Z,34.58
2023-02-14T17:30:05.104Z,61.97
2023-02-14T17:40:07.719Z,71.88
2023-02-14T17:50:11.816Z,82.65
2023-02-14T18:00:14.360Z,77.82
2023-02-14T18:10:16.296Z,67.28
2023-02-14T18:20:18.297Z,61.10
2023-02-14T18:30:20.347Z,90.30
2023-02-14T18:40:22.327Z,90.20
2023-02-14T18:50:24.122Z,83.68
2023-02-14T19:00:25.995Z,70.50
2023-02-14T19:10:27.958Z,100.38
2023-02-14T19:20:29.843Z,102.07
2023-02-14T19:30:31.852Z,96.32
2023-02-14T19:40:33.741Z,102.60
2023-02-14T19:50:35.616Z,85.07
2023-02-14T20:00:37.545Z,117.20
2023-02-14T20:10:39.690Z,87.57
2023-02-14T20:20:46.623Z,90.40
2023-02-14T20:30:48.664Z,115.88
2023-02-14T20:40:50.602Z,111.13
2023-02-14T20:50:52.561Z,127.28
2023-02-14T21:00:56.317Z,102.53
2023-02-14T21:10:58.688Z,115.30
2023-02-14T21:21:11.400Z,149.60
2023-02-14T21:31:18.306Z,122.45
2023-02-14T21:41:22.662Z,117.68
2023-02-14T21:51:24.809Z,119.82
2023-02-14T22:01:29.143Z,101.15
2023-02-14T22:11:31.082Z,151.00
2023-02-14T22:21:33.390Z,107.60
2023-02-14T22:31:38.661Z,124.20
2023-02-14T22:41:40.676Z,136.85
2023-02-14T22:51:43.040Z,115.05
2023-02-14T23:01:45.615Z,115.93
2023-02-14T23:11:48.691Z,127.70
2023-02-14T23:21:53.741Z,123.30
2023-02-14T23:32:01.694Z,86.05
2023-02-14T23:42:12.919Z,96.20
2023-02-14T23:52:15.051Z,42.65
